.
WxDataArchive / Data Records for 2010-11-07
2010-11-06 November 2010 2010-11-08

Data Records for Sunday, 07 November 2010

Time	Temp	Chill	HIndex	Humid	Dewpt	 Wind 	HiWind	WindDir	Rain 	Barom 
-----	----	-----	------	-----	-----	------	------	-------	-----	----- 
00:00	27.0	27.0	27.0	77	20.8	0	0	---	0.00	30.408 
00:05	27.2	27.2	27.2	77	21.0	0	0	---	0.00	30.408 
00:10	27.2	27.2	27.2	76	20.7	0	0	---	0.00	30.408 
00:15	27.2	27.2	27.2	76	20.7	0	0	---	0.00	30.411 
00:20	27.2	27.2	27.2	76	20.7	0	0	---	0.00	30.411 
00:25	27.2	27.2	27.2	76	20.7	0	0	---	0.00	30.411 
00:30	27.2	27.2	27.2	76	20.7	0	0	---	0.00	30.410 
00:35	27.2	27.2	27.2	76	20.7	0	0	---	0.00	30.410 
00:40	27.2	27.2	27.2	75	20.3	0	0	---	0.00	30.410 
00:45	27.2	27.2	27.2	75	20.3	0	0	---	0.00	30.414 
00:50	27.0	27.0	27.0	76	20.5	0	0	---	0.00	30.414 
00:55	27.0	27.0	27.0	76	20.5	0	0	---	0.00	30.414 
01:00	27.0	27.0	27.0	76	20.5	0	0	---	0.00	30.418 
01:05	26.9	26.9	26.9	76	20.4	0	0	---	0.00	30.418 
01:10	27.0	27.0	27.0	76	20.5	0	0	---	0.00	30.418 
01:15	27.0	27.0	27.0	75	20.2	0	0	---	0.00	30.416 
01:20	26.9	26.9	26.9	75	20.1	0	0	---	0.00	30.416 
01:25	26.9	26.9	26.9	76	20.4	0	0	---	0.00	30.416 
01:30	26.9	26.9	26.9	76	20.4	0	0	---	0.00	30.415 
01:35	26.9	26.9	26.9	76	20.4	0	0	---	0.00	30.415 
01:40	26.9	26.9	26.9	76	20.4	0	0	---	0.00	30.415 
01:45	26.7	26.7	26.7	76	20.2	0	0	---	0.00	30.413 
01:50	26.7	26.7	26.7	76	20.2	0	0	---	0.00	30.413 
01:55	26.7	26.7	26.7	76	20.2	0	0	---	0.00	30.413 
02:00	26.7	26.7	26.7	76	20.2	0	0	---	0.00	30.416 
02:05	28.1	28.1	28.1	74	20.9	0	0	---	0.00	30.410 
02:10	28.1	28.1	28.1	74	20.9	0	0	---	0.00	30.410 
02:15	28.2	28.2	28.2	73	20.7	0	1	315	0.00	30.410 
02:20	28.4	28.4	28.4	73	20.9	0	1	315	0.00	30.410 
02:25	28.4	28.4	28.4	73	20.9	0	1	315	0.00	30.410 
02:30	28.4	28.4	28.4	73	20.9	0	0	---	0.00	30.407 
02:35	28.4	28.4	28.4	72	20.5	0	0	---	0.00	30.407 
02:40	28.2	28.2	28.2	72	20.4	0	0	---	0.00	30.407 
02:45	28.2	28.2	28.2	72	20.4	0	0	---	0.00	30.407 
02:50	28.2	28.2	28.2	72	20.4	0	0	---	0.00	30.407 
02:55	28.2	28.2	28.2	72	20.4	0	1	315	0.00	30.407 
03:00	28.2	28.2	28.2	72	20.4	0	0	---	0.00	30.412 
03:05	28.2	28.2	28.2	72	20.4	0	0	---	0.00	30.412 
03:10	28.4	28.4	28.4	72	20.5	0	1	315	0.00	30.412 
03:15	28.5	28.5	28.5	72	20.6	0	1	315	0.00	30.428 
03:20	28.5	28.5	28.5	72	20.6	0	0	---	0.00	30.428 
03:25	28.5	28.5	28.5	72	20.6	0	0	---	0.00	30.428 
03:30	28.5	28.5	28.5	72	20.6	0	1	315	0.00	30.428 
03:35	28.5	28.5	28.5	72	20.6	0	0	---	0.00	30.428 
03:40	28.7	28.7	28.7	71	20.5	0	1	315	0.00	30.428 
03:45	28.8	28.8	28.8	71	20.6	0	0	---	0.00	30.428 
03:50	29.0	29.0	29.0	71	20.8	0	2	315	0.00	30.428 
03:55	29.0	29.0	29.0	70	20.5	0	2	315	0.00	30.428 
04:00	29.1	29.1	29.1	70	20.6	0	2	248	0.00	30.423 
04:05	29.1	29.1	29.1	70	20.6	0	1	248	0.00	30.423 
04:10	29.1	29.1	29.1	70	20.6	0	1	248	0.00	30.423 
04:15	29.1	29.1	29.1	70	20.6	0	1	248	0.00	30.423 
04:20	29.0	29.0	29.0	70	20.5	0	2	248	0.00	30.423 
04:25	29.1	29.1	29.1	70	20.6	0	2	248	0.00	30.423 
04:30	29.1	29.1	29.1	70	20.6	0	3	248	0.00	30.417 
04:35	29.3	29.3	29.3	70	20.8	0	3	248	0.00	30.417 
04:40	29.4	29.4	29.4	69	20.5	0	3	225	0.00	30.417 
04:45	29.5	29.5	29.5	69	20.6	0	2	225	0.00	30.414 
04:50	29.7	29.7	29.7	69	20.8	0	1	225	0.00	30.414 
04:55	29.7	29.7	29.7	69	20.8	0	2	225	0.00	30.414 
05:00	29.8	29.8	29.8	68	20.5	0	2	225	0.00	30.417 
05:05	29.8	29.8	29.8	68	20.5	1	4	225	0.00	30.417 
05:10	30.1	30.1	30.1	67	20.5	1	3	248	0.00	30.417 
05:15	30.1	30.1	30.1	67	20.5	1	4	248	0.00	30.415 
05:20	30.3	30.3	30.3	67	20.7	1	3	248	0.00	30.415 
05:25	30.4	30.4	30.4	66	20.4	1	3	248	0.00	30.415 
05:30	30.6	30.6	30.6	66	20.6	0	2	248	0.00	30.411 
05:35	30.7	30.7	30.7	66	20.7	1	3	248	0.00	30.411 
05:40	30.7	30.7	30.7	65	20.3	1	4	248	0.00	30.411 
05:45	30.7	30.7	30.7	65	20.3	0	3	248	0.00	30.409 
05:50	30.7	30.7	30.7	65	20.3	0	2	248	0.00	30.409 
05:55	30.7	30.7	30.7	65	20.3	0	2	248	0.00	30.409 
06:00	30.7	30.7	30.7	65	20.3	0	2	248	0.00	30.411 
06:05	30.7	30.7	30.7	65	20.3	1	3	248	0.00	30.411 
06:10	30.7	30.7	30.7	65	20.3	1	4	248	0.00	30.411 
06:15	30.7	30.7	30.7	65	20.3	1	3	248	0.00	30.411 
06:20	30.7	30.7	30.7	65	20.3	1	5	248	0.00	30.411 
06:25	30.7	30.7	30.7	65	20.3	1	2	225	0.00	30.411 
06:30	30.7	30.7	30.7	65	20.3	0	2	225	0.00	30.407 
06:35	30.6	30.6	30.6	65	20.3	0	3	225	0.00	30.407 
06:40	30.6	30.6	30.6	65	20.3	1	4	225	0.00	30.407 
06:45	30.4	30.4	30.4	65	20.1	0	3	270	0.00	30.406 
06:50	30.3	30.3	30.3	65	20.0	0	2	270	0.00	30.406 
06:55	30.3	30.3	30.3	66	20.3	0	2	270	0.00	30.406 
07:00	30.0	30.0	30.0	66	20.0	0	2	270	0.00	30.409 
07:05	29.8	29.8	29.8	66	19.8	0	1	270	0.00	30.409 
07:10	29.5	29.5	29.5	67	19.9	0	2	270	0.00	30.409 
07:15	29.4	29.4	29.4	68	20.2	0	1	270	0.00	30.412 
07:20	29.1	29.1	29.1	68	19.9	0	1	270	0.00	30.412 
07:25	29.0	29.0	29.0	69	20.1	0	1	270	0.00	30.412 
07:30	28.8	28.8	28.8	69	19.9	0	0	---	0.00	30.413 
07:35	28.7	28.7	28.7	69	19.8	0	1	270	0.00	30.413 
07:40	28.7	28.7	28.7	69	19.8	0	2	270	0.00	30.413 
07:45	28.7	28.7	28.7	70	20.2	0	1	270	0.00	30.422 
07:50	28.7	28.7	28.7	70	20.2	0	1	270	0.00	30.422 
07:55	28.8	28.8	28.8	70	20.3	0	1	270	0.00	30.422 
08:00	29.1	29.1	29.1	69	20.2	0	1	270	0.00	30.421 
08:05	29.5	29.5	29.5	69	20.6	0	1	270	0.00	30.421 
08:10	30.1	30.1	30.1	68	20.8	0	3	270	0.00	30.421 
08:15	30.6	30.6	30.6	68	21.3	0	1	270	0.00	30.419 
08:20	31.2	31.2	31.2	66	21.2	0	5	225	0.00	30.419 
08:25	31.9	31.9	31.9	65	21.5	0	2	225	0.00	30.419 
08:30	32.5	32.5	32.5	63	21.3	1	5	270	0.00	30.420 
08:35	32.8	32.8	32.8	62	21.2	1	4	270	0.00	30.420 
08:40	33.1	33.1	33.1	62	21.5	0	3	225	0.00	30.420 
08:45	33.5	33.5	33.5	61	21.5	0	1	225	0.00	30.419 
08:50	33.8	33.8	33.8	62	22.2	0	1	248	0.00	30.419 
08:55	34.1	34.1	34.1	61	22.1	0	6	248	0.00	30.419 
09:00	34.6	34.6	34.6	61	22.6	0	3	248	0.00	30.415 
09:05	35.2	35.2	35.2	60	22.7	1	6	248	0.00	30.415 
09:10	35.3	35.3	35.3	58	22.0	1	4	248	0.00	30.415 
09:15	35.8	35.8	35.8	58	22.5	0	1	248	0.00	30.410 
09:20	36.0	36.0	36.0	57	22.3	2	5	248	0.00	30.410 
09:25	36.5	36.5	36.5	58	23.1	1	5	248	0.00	30.410 
09:30	36.8	36.8	36.8	57	23.0	1	3	292	0.00	30.401 
09:35	37.0	37.0	37.0	57	23.2	1	4	248	0.00	30.401 
09:40	37.5	37.5	37.5	55	22.8	2	6	248	0.00	30.401 
09:45	37.8	37.8	37.8	55	23.1	2	7	248	0.00	30.395 
09:50	38.2	38.2	38.2	55	23.5	1	4	248	0.00	30.395 
09:55	38.8	38.8	38.8	52	22.7	2	7	225	0.00	30.395 
10:00	39.3	39.3	39.3	52	23.2	2	5	248	0.00	30.384 
10:05	39.9	39.9	39.9	50	22.8	2	5	248	0.00	30.384 
10:10	40.3	40.3	40.3	50	23.2	2	5	248	0.00	30.384 
10:15	40.9	40.9	40.9	50	23.7	1	5	248	0.00	30.371 
10:20	41.6	41.6	41.6	47	22.9	2	6	225	0.00	30.371 
10:25	41.8	41.8	41.8	46	22.6	3	9	248	0.00	30.371 
10:30	41.9	41.9	41.9	46	22.6	2	6	225	0.00	30.375 
10:35	42.2	42.2	42.2	46	22.9	2	6	248	0.00	30.375 
10:40	42.3	42.3	42.3	46	23.0	3	9	248	0.00	30.375 
10:45	42.6	42.6	42.6	45	22.8	3	7	225	0.00	30.364 
10:50	43.1	43.1	43.1	45	23.2	2	7	248	0.00	30.364 
10:55	43.5	43.5	43.5	44	23.1	3	7	248	0.00	30.364 
11:00	43.9	43.9	43.9	42	22.3	3	8	248	0.00	30.360 
11:05	44.2	44.2	44.2	42	22.6	3	7	248	0.00	30.360 
11:10	44.6	44.6	44.6	41	22.4	2	6	248	0.00	30.360 
11:15	45.1	45.1	45.1	41	22.8	2	6	270	0.00	30.349 
11:20	45.5	45.5	45.5	41	23.2	2	6	248	0.00	30.349 
11:25	45.8	45.8	45.8	39	22.3	3	5	248	0.00	30.349 
11:30	46.2	46.2	46.2	39	22.6	2	8	225	0.00	30.345 
11:35	46.7	46.7	46.7	39	23.1	1	5	248	0.00	30.345 
11:40	47.3	47.3	47.3	38	23.0	2	9	248	0.00	30.345 
11:45	47.4	47.4	47.4	37	22.5	2	7	248	0.00	30.330 
11:50	47.9	47.9	47.9	38	23.5	1	6	248	0.00	30.330 
11:55	48.3	48.3	48.3	36	22.6	2	6	270	0.00	30.330 
12:00	48.6	48.6	48.6	35	22.2	2	6	248	0.00	30.319 
12:05	48.9	48.9	48.9	35	22.5	1	4	225	0.00	30.319 
12:10	49.2	49.2	49.2	34	22.0	3	7	248	0.00	30.319 
12:15	49.5	49.5	49.5	35	23.0	2	4	225	0.00	30.312 
12:20	50.1	50.1	50.1	34	22.8	1	5	248	0.00	30.312 
12:25	50.1	50.1	50.1	32	21.4	4	9	248	0.00	30.312 
12:30	49.9	49.9	49.9	34	22.7	3	9	248	0.00	30.298 
12:35	50.2	50.2	50.2	33	22.2	3	5	248	0.00	30.298 
12:40	50.8	50.8	50.8	34	23.5	1	3	225	0.00	30.298 
12:45	51.3	51.3	51.3	33	23.2	1	5	248	0.00	30.287 
12:50	51.4	51.4	51.4	32	22.5	3	7	248	0.00	30.287 
12:55	51.6	51.6	51.6	32	22.7	2	6	248	0.00	30.287 
13:00	51.9	51.9	51.9	32	23.0	3	6	270	0.00	30.280 
13:05	52.3	52.3	52.3	31	22.6	2	10	248	0.00	30.280 
13:10	52.6	52.6	52.6	31	22.8	2	7	248	0.00	30.280 
13:15	52.9	52.9	52.9	31	23.1	2	5	248	0.00	30.270 
13:20	53.1	53.1	53.1	29	21.7	3	6	248	0.00	30.270 
13:25	53.5	53.5	53.5	30	22.8	2	5	270	0.00	30.270 
13:30	53.6	53.6	53.6	29	22.1	2	6	248	0.00	30.260 
13:35	53.8	53.8	53.8	29	22.3	2	6	248	0.00	30.260 
13:40	54.1	54.1	54.1	29	22.6	1	6	248	0.00	30.260 
13:45	54.4	54.4	54.4	27	21.1	3	6	248	0.00	30.248 
13:50	54.5	54.5	54.5	28	22.1	3	7	248	0.00	30.248 
13:55	54.5	54.5	54.5	28	22.1	2	6	248	0.00	30.248 
14:00	54.8	54.8	54.8	27	21.5	2	6	248	0.00	30.243 
14:05	55.0	55.0	55.0	28	22.5	2	9	225	0.00	30.243 
14:10	55.3	55.3	55.3	27	21.9	1	3	248	0.00	30.243 
14:15	55.4	55.4	55.4	28	22.8	2	5	270	0.00	30.236 
14:20	55.6	55.6	55.6	28	23.0	1	6	225	0.00	30.236 
14:25	55.7	55.7	55.7	28	23.1	2	5	248	0.00	30.236 
14:30	55.9	55.9	55.9	27	22.4	2	6	292	0.00	30.225 
14:35	55.9	55.9	55.9	28	23.3	2	10	248	0.00	30.225 
14:40	55.9	55.9	55.9	27	22.4	2	7	248	0.00	30.225 
14:45	56.0	56.0	56.0	28	23.4	2	7	248	0.00	30.215 
14:50	56.0	56.0	56.0	27	22.5	2	5	248	0.00	30.215 
14:55	56.2	56.2	56.2	27	22.7	1	6	248	0.00	30.215 
15:00	56.3	56.3	56.3	27	22.8	3	9	270	0.00	30.209 
15:05	56.5	56.5	56.5	26	22.0	3	7	248	0.00	30.209 
15:10	56.7	56.7	56.7	26	22.2	2	4	248	0.00	30.209 
15:15	56.9	56.9	56.9	26	22.4	2	7	225	0.00	30.196 
15:20	56.7	56.7	56.7	25	21.3	4	9	248	0.00	30.196 
15:25	56.6	56.6	56.6	26	22.1	2	7	225	0.00	30.196 
15:30	56.6	56.6	56.6	27	23.0	1	3	248	0.00	30.186 
15:35	56.9	56.9	56.9	27	23.3	1	5	270	0.00	30.186 
15:40	56.7	56.7	56.7	27	23.1	2	6	248	0.00	30.186 
15:45	56.6	56.6	56.6	27	23.0	1	5	225	0.00	30.184 
15:50	56.5	56.5	56.5	27	22.9	1	4	248	0.00	30.184 
15:55	56.5	56.5	56.5	26	22.0	2	7	248	0.00	30.184 
16:00	56.5	56.5	56.5	26	22.0	2	6	248	0.00	30.180 
16:05	56.5	56.5	56.5	27	22.9	1	7	248	0.00	30.180 
16:10	56.5	56.5	56.5	27	22.9	1	7	248	0.00	30.180 
16:15	56.3	56.3	56.3	27	22.8	2	5	248	0.00	30.177 
16:20	56.2	56.2	56.2	27	22.7	2	5	225	0.00	30.177 
16:25	55.9	55.9	55.9	27	22.4	2	7	248	0.00	30.177 
16:30	55.7	55.7	55.7	27	22.2	3	7	248	0.00	30.168 
16:35	55.6	55.6	55.6	27	22.2	2	7	248	0.00	30.168 
16:40	55.3	55.3	55.3	27	21.9	1	4	248	0.00	30.168 
16:45	55.1	55.1	55.1	27	21.7	1	3	248	0.00	30.166 
16:50	54.8	54.8	54.8	28	22.3	2	6	248	0.00	30.166 
16:55	54.5	54.5	54.5	28	22.1	1	4	248	0.00	30.166 
17:00	54.2	54.2	54.2	28	21.8	1	5	248	0.00	30.163 
17:05	54.1	54.1	54.1	29	22.6	1	4	248	0.00	30.163 
17:10	53.6	53.6	53.6	29	22.1	1	4	248	0.00	30.163 
17:15	53.3	53.3	53.3	29	21.9	1	4	225	0.00	30.164 
17:20	53.2	53.2	53.2	30	22.6	0	2	270	0.00	30.164 
17:25	52.8	52.8	52.8	30	22.2	0	2	270	0.00	30.164 
17:30	52.5	52.5	52.5	31	22.8	0	2	270	0.00	30.166 
17:35	52.2	52.2	52.2	31	22.5	0	2	270	0.00	30.166 
17:40	51.9	51.9	51.9	32	23.0	0	2	270	0.00	30.166 
17:45	51.6	51.6	51.6	32	22.7	0	0	---	0.00	30.167 
17:50	51.1	51.1	51.1	33	23.0	0	0	---	0.00	30.167 
17:55	50.5	50.5	50.5	33	22.5	0	0	---	0.00	30.167 
18:00	50.1	50.1	50.1	34	22.8	0	0	---	0.00	30.170 
18:05	49.6	49.6	49.6	35	23.1	0	1	270	0.00	30.170 
18:10	49.2	49.2	49.2	35	22.7	0	0	---	0.00	30.170 
18:15	48.6	48.6	48.6	36	22.9	0	0	---	0.00	30.173 
18:20	48.2	48.2	48.2	37	23.2	0	0	---	0.00	30.173 
18:25	47.7	47.7	47.7	38	23.4	0	0	---	0.00	30.173 
18:30	47.3	47.3	47.3	38	23.0	0	0	---	0.00	30.176 
18:35	47.0	47.0	47.0	38	22.7	0	0	---	0.00	30.176 
18:40	46.8	46.8	46.8	40	23.8	0	0	---	0.00	30.176 
18:45	46.5	46.5	46.5	40	23.5	0	1	270	0.00	30.178 
18:50	46.4	46.4	46.4	40	23.4	0	0	---	0.00	30.178 
18:55	46.2	46.2	46.2	40	23.2	0	0	---	0.00	30.178 
19:00	46.0	46.0	46.0	41	23.6	0	0	---	0.00	30.179 
19:05	45.8	45.8	45.8	41	23.5	0	0	---	0.00	30.179 
19:10	45.7	45.7	45.7	41	23.4	0	0	---	0.00	30.179 
19:15	45.4	45.4	45.4	41	23.1	0	0	---	0.00	30.176 
19:20	45.2	45.2	45.2	42	23.5	0	0	---	0.00	30.176 
19:25	44.9	44.9	44.9	42	23.2	0	0	---	0.00	30.176 
19:30	44.8	44.8	44.8	42	23.1	0	0	---	0.00	30.179 
19:35	44.6	44.6	44.6	43	23.5	0	0	---	0.00	30.179 
19:40	44.5	44.5	44.5	43	23.4	0	0	---	0.00	30.179 
19:45	44.3	44.3	44.3	43	23.2	0	0	---	0.00	30.176 
19:50	44.1	44.1	44.1	44	23.6	0	0	---	0.00	30.176 
19:55	43.9	43.9	43.9	44	23.4	0	0	---	0.00	30.176 
20:00	43.8	43.8	43.8	44	23.3	0	0	---	0.00	30.174 
20:05	43.6	43.6	43.6	44	23.1	0	0	---	0.00	30.174 
20:10	43.5	43.5	43.5	45	23.6	0	0	---	0.00	30.174 
20:15	43.3	43.3	43.3	46	23.9	0	0	---	0.00	30.168 
20:20	43.1	43.1	43.1	46	23.7	0	0	---	0.00	30.168 
20:25	42.8	42.8	42.8	46	23.5	0	0	---	0.00	30.168 
20:30	42.5	42.5	42.5	47	23.7	0	0	---	0.00	30.159 
20:35	42.2	42.2	42.2	48	23.9	0	0	---	0.00	30.159 
20:40	42.1	42.1	42.1	48	23.8	0	0	---	0.00	30.159 
20:45	41.8	41.8	41.8	48	23.6	0	0	---	0.00	30.160 
20:50	41.6	41.6	41.6	49	23.9	0	0	---	0.00	30.160 
20:55	41.5	41.5	41.5	49	23.8	0	0	---	0.00	30.160 
21:00	41.3	41.3	41.3	49	23.6	0	0	---	0.00	30.158 
21:05	41.3	41.3	41.3	50	24.1	0	0	---	0.00	30.158 
21:10	41.3	41.3	41.3	49	23.6	0	0	---	0.00	30.158 
21:15	41.3	41.3	41.3	49	23.6	0	0	---	0.00	30.156 
21:20	41.2	41.2	41.2	50	24.0	0	0	---	0.00	30.156 
21:25	41.2	41.2	41.2	49	23.5	0	0	---	0.00	30.156 
21:30	41.2	41.2	41.2	49	23.5	0	0	---	0.00	30.151 
21:35	41.3	41.3	41.3	49	23.6	0	0	---	0.00	30.151 
21:40	41.3	41.3	41.3	50	24.1	0	0	---	0.00	30.151 
21:45	41.2	41.2	41.2	50	24.0	0	0	---	0.00	30.149 
21:50	41.1	41.1	41.1	50	23.9	0	0	---	0.00	30.149 
21:55	40.9	40.9	40.9	50	23.7	0	0	---	0.00	30.149 
22:00	40.8	40.8	40.8	50	23.6	0	0	---	0.00	30.145 
22:05	40.6	40.6	40.6	50	23.4	0	0	---	0.00	30.145 
22:10	40.6	40.6	40.6	50	23.4	0	0	---	0.00	30.145 
22:15	40.6	40.6	40.6	50	23.4	0	0	---	0.00	30.139 
22:20	40.6	40.6	40.6	50	23.4	0	0	---	0.00	30.139 
22:25	40.6	40.6	40.6	50	23.4	0	0	---	0.00	30.139 
22:30	40.6	40.6	40.6	50	23.4	0	0	---	0.00	30.134 
22:35	40.5	40.5	40.5	51	23.8	0	0	---	0.00	30.134 
22:40	40.3	40.3	40.3	51	23.6	0	0	---	0.00	30.134 
22:45	40.1	40.1	40.1	51	23.4	0	0	---	0.00	30.132 
22:50	39.9	39.9	39.9	52	23.7	0	0	---	0.00	30.132 
22:55	39.8	39.8	39.8	53	24.1	0	0	---	0.00	30.132 

CoCoRaHS
IN-AL-39
A2 Web Hosting
Creative Commons License
GoDaddy
search engine by freefind advanced

loaded 2018-11-17 22:25:00 • last modified 2010-11-18 10:43:29
Privacy PolicyDisclaimer
• wx.awcolley.com is powered by PmWiki v.2002016 •
• all content (unless otherwise noted) © 2018 A W Colley